sensor_id;sensor_type;location;lat;lon;timestamp;P1;durP1;ratioP1;P2;durP2;ratioP2
15679;SDS011;15488;48.114;11.532;2023-04-03T00:00:55;5.87;;;4.20;;
15679;SDS011;15488;48.114;11.532;2023-04-03T00:03:22;5.30;;;3.97;;
15679;SDS011;15488;48.114;11.532;2023-04-03T00:05:50;4.57;;;3.47;;
15679;SDS011;15488;48.114;11.532;2023-04-03T00:08:18;5.57;;;3.73;;
15679;SDS011;15488;48.114;11.532;2023-04-03T00:10:47;5.20;;;3.60;;
15679;SDS011;15488;48.114;11.532;2023-04-03T00:13:14;5.43;;;4.23;;
15679;SDS011;15488;48.114;11.532;2023-04-03T00:15:42;5.77;;;4.10;;
15679;SDS011;15488;48.114;11.532;2023-04-03T00:18:10;5.17;;;3.97;;
15679;SDS011;15488;48.114;11.532;2023-04-03T00:20:38;4.63;;;3.60;;
15679;SDS011;15488;48.114;11.532;2023-04-03T00:23:05;4.60;;;3.60;;
15679;SDS011;15488;48.114;11.532;2023-04-03T00:25:33;4.73;;;3.67;;
15679;SDS011;15488;48.114;11.532;2023-04-03T00:28:02;4.90;;;3.80;;
15679;SDS011;15488;48.114;11.532;2023-04-03T00:30:30;4.43;;;3.57;;
15679;SDS011;15488;48.114;11.532;2023-04-03T00:32:58;6.13;;;3.80;;
15679;SDS011;15488;48.114;11.532;2023-04-03T00:35:26;4.43;;;3.67;;
15679;SDS011;15488;48.114;11.532;2023-04-03T00:37:55;4.20;;;3.20;;
15679;SDS011;15488;48.114;11.532;2023-04-03T00:40:23;4.63;;;3.90;;
15679;SDS011;15488;48.114;11.532;2023-04-03T00:42:55;4.70;;;3.60;;
15679;SDS011;15488;48.114;11.532;2023-04-03T00:45:27;5.07;;;3.70;;
15679;SDS011;15488;48.114;11.532;2023-04-03T00:48:00;5.07;;;3.83;;
15679;SDS011;15488;48.114;11.532;2023-04-03T00:50:30;4.80;;;3.70;;
15679;SDS011;15488;48.114;11.532;2023-04-03T00:53:01;4.77;;;3.73;;
15679;SDS011;15488;48.114;11.532;2023-04-03T00:55:30;4.97;;;3.90;;
15679;SDS011;15488;48.114;11.532;2023-04-03T00:57:58;3.60;;;3.27;;
15679;SDS011;15488;48.114;11.532;2023-04-03T01:00:28;4.37;;;3.37;;
15679;SDS011;15488;48.114;11.532;2023-04-03T01:02:56;4.33;;;3.17;;
15679;SDS011;15488;48.114;11.532;2023-04-03T01:05:23;4.47;;;3.63;;
15679;SDS011;15488;48.114;11.532;2023-04-03T01:07:51;4.63;;;3.53;;
15679;SDS011;15488;48.114;11.532;2023-04-03T01:10:19;3.70;;;3.23;;
15679;SDS011;15488;48.114;11.532;2023-04-03T01:12:48;5.73;;;3.50;;
15679;SDS011;15488;48.114;11.532;2023-04-03T01:15:19;3.77;;;3.20;;
15679;SDS011;15488;48.114;11.532;2023-04-03T01:17:50;4.17;;;3.40;;
15679;SDS011;15488;48.114;11.532;2023-04-03T01:23:25;3.87;;;3.40;;
15679;SDS011;15488;48.114;11.532;2023-04-03T01:26:08;4.67;;;3.70;;
15679;SDS011;15488;48.114;11.532;2023-04-03T01:28:36;4.53;;;3.47;;
15679;SDS011;15488;48.114;11.532;2023-04-03T01:31:06;3.40;;;3.10;;
15679;SDS011;15488;48.114;11.532;2023-04-03T01:33:43;3.90;;;3.13;;
15679;SDS011;15488;48.114;11.532;2023-04-03T01:36:13;3.93;;;3.53;;
15679;SDS011;15488;48.114;11.532;2023-04-03T01:38:42;4.50;;;3.13;;
15679;SDS011;15488;48.114;11.532;2023-04-03T01:41:09;5.43;;;3.40;;
15679;SDS011;15488;48.114;11.532;2023-04-03T01:43:37;3.80;;;3.40;;
15679;SDS011;15488;48.114;11.532;2023-04-03T01:46:04;3.97;;;3.20;;
15679;SDS011;15488;48.114;11.532;2023-04-03T01:48:32;4.20;;;3.50;;
15679;SDS011;15488;48.114;11.532;2023-04-03T01:51:02;4.73;;;3.70;;
15679;SDS011;15488;48.114;11.532;2023-04-03T01:53:29;4.80;;;3.60;;
15679;SDS011;15488;48.114;11.532;2023-04-03T01:55:56;4.60;;;3.40;;
15679;SDS011;15488;48.114;11.532;2023-04-03T01:58:24;3.90;;;3.50;;
15679;SDS011;15488;48.114;11.532;2023-04-03T02:00:52;4.70;;;3.47;;
15679;SDS011;15488;48.114;11.532;2023-04-03T02:03:19;5.00;;;3.67;;
15679;SDS011;15488;48.114;11.532;2023-04-03T02:05:47;3.70;;;3.27;;
15679;SDS011;15488;48.114;11.532;2023-04-03T02:08:17;4.30;;;3.37;;
15679;SDS011;15488;48.114;11.532;2023-04-03T02:10:46;4.10;;;3.30;;
15679;SDS011;15488;48.114;11.532;2023-04-03T02:13:14;4.60;;;3.47;;
15679;SDS011;15488;48.114;11.532;2023-04-03T02:15:42;4.43;;;3.60;;
15679;SDS011;15488;48.114;11.532;2023-04-03T02:18:10;3.97;;;3.50;;
15679;SDS011;15488;48.114;11.532;2023-04-03T02:20:38;4.47;;;3.47;;
15679;SDS011;15488;48.114;11.532;2023-04-03T02:23:06;4.73;;;3.40;;
15679;SDS011;15488;48.114;11.532;2023-04-03T02:25:35;4.07;;;3.10;;
15679;SDS011;15488;48.114;11.532;2023-04-03T02:28:02;3.73;;;3.40;;
15679;SDS011;15488;48.114;11.532;2023-04-03T02:30:30;4.40;;;3.10;;
15679;SDS011;15488;48.114;11.532;2023-04-03T02:32:57;3.97;;;3.47;;
15679;SDS011;15488;48.114;11.532;2023-04-03T02:35:25;4.27;;;3.07;;
15679;SDS011;15488;48.114;11.532;2023-04-03T02:37:52;5.00;;;3.03;;
15679;SDS011;15488;48.114;11.532;2023-04-03T02:40:19;3.30;;;2.70;;
15679;SDS011;15488;48.114;11.532;2023-04-03T02:42:48;3.93;;;3.13;;
15679;SDS011;15488;48.114;11.532;2023-04-03T02:45:16;3.77;;;3.10;;
15679;SDS011;15488;48.114;11.532;2023-04-03T02:47:43;3.70;;;3.20;;
15679;SDS011;15488;48.114;11.532;2023-04-03T02:50:11;3.80;;;2.57;;
15679;SDS011;15488;48.114;11.532;2023-04-03T02:52:38;4.80;;;3.00;;
15679;SDS011;15488;48.114;11.532;2023-04-03T02:55:06;3.27;;;2.97;;
15679;SDS011;15488;48.114;11.532;2023-04-03T02:57:34;4.03;;;3.07;;
15679;SDS011;15488;48.114;11.532;2023-04-03T03:00:03;3.70;;;3.13;;
15679;SDS011;15488;48.114;11.532;2023-04-03T03:02:32;4.67;;;3.10;;
15679;SDS011;15488;48.114;11.532;2023-04-03T03:04:59;3.97;;;3.00;;
15679;SDS011;15488;48.114;11.532;2023-04-03T03:07:27;4.27;;;2.97;;
15679;SDS011;15488;48.114;11.532;2023-04-03T03:09:54;3.70;;;2.63;;
15679;SDS011;15488;48.114;11.532;2023-04-03T03:12:22;3.10;;;2.70;;
15679;SDS011;15488;48.114;11.532;2023-04-03T03:14:50;3.20;;;2.90;;
15679;SDS011;15488;48.114;11.532;2023-04-03T03:17:19;3.27;;;2.70;;
15679;SDS011;15488;48.114;11.532;2023-04-03T03:19:46;3.83;;;2.67;;
15679;SDS011;15488;48.114;11.532;2023-04-03T03:22:13;2.47;;;2.20;;
15679;SDS011;15488;48.114;11.532;2023-04-03T03:24:42;2.87;;;2.30;;
15679;SDS011;15488;48.114;11.532;2023-04-03T03:27:09;3.20;;;2.47;;
15679;SDS011;15488;48.114;11.532;2023-04-03T03:29:37;2.60;;;2.30;;
15679;SDS011;15488;48.114;11.532;2023-04-03T03:32:05;4.17;;;2.80;;
15679;SDS011;15488;48.114;11.532;2023-04-03T03:34:33;2.93;;;2.43;;
15679;SDS011;15488;48.114;11.532;2023-04-03T03:37:01;3.43;;;3.10;;
15679;SDS011;15488;48.114;11.532;2023-04-03T03:39:28;3.93;;;2.70;;
15679;SDS011;15488;48.114;11.532;2023-04-03T03:41:56;3.73;;;2.90;;
15679;SDS011;15488;48.114;11.532;2023-04-03T03:44:23;4.80;;;2.97;;
15679;SDS011;15488;48.114;11.532;2023-04-03T03:46:51;3.20;;;2.60;;
15679;SDS011;15488;48.114;11.532;2023-04-03T03:49:18;3.43;;;2.57;;
15679;SDS011;15488;48.114;11.532;2023-04-03T03:51:47;2.73;;;2.30;;
15679;SDS011;15488;48.114;11.532;2023-04-03T03:54:15;2.80;;;2.50;;
15679;SDS011;15488;48.114;11.532;2023-04-03T03:56:42;3.60;;;2.60;;
15679;SDS011;15488;48.114;11.532;2023-04-03T03:59:11;3.90;;;2.50;;
15679;SDS011;15488;48.114;11.532;2023-04-03T04:01:38;2.70;;;2.00;;
15679;SDS011;15488;48.114;11.532;2023-04-03T04:04:06;4.07;;;2.37;;
15679;SDS011;15488;48.114;11.532;2023-04-03T04:06:33;2.83;;;2.20;;
15679;SDS011;15488;48.114;11.532;2023-04-03T04:09:02;4.20;;;2.70;;
15679;SDS011;15488;48.114;11.532;2023-04-03T04:11:29;2.43;;;2.20;;
15679;SDS011;15488;48.114;11.532;2023-04-03T04:13:58;4.70;;;2.63;;
15679;SDS011;15488;48.114;11.532;2023-04-03T04:16:25;2.20;;;2.00;;
15679;SDS011;15488;48.114;11.532;2023-04-03T04:18:53;4.40;;;2.30;;
15679;SDS011;15488;48.114;11.532;2023-04-03T04:21:20;2.70;;;2.17;;
15679;SDS011;15488;48.114;11.532;2023-04-03T04:23:48;2.57;;;2.30;;
15679;SDS011;15488;48.114;11.532;2023-04-03T04:26:16;2.93;;;2.50;;
15679;SDS011;15488;48.114;11.532;2023-04-03T04:28:45;3.10;;;2.20;;
15679;SDS011;15488;48.114;11.532;2023-04-03T04:31:12;2.50;;;2.30;;
15679;SDS011;15488;48.114;11.532;2023-04-03T04:33:40;2.50;;;2.03;;
15679;SDS011;15488;48.114;11.532;2023-04-03T04:36:07;2.20;;;1.97;;
15679;SDS011;15488;48.114;11.532;2023-04-03T04:38:35;2.43;;;2.10;;
15679;SDS011;15488;48.114;11.532;2023-04-03T04:41:03;2.30;;;2.00;;
15679;SDS011;15488;48.114;11.532;2023-04-03T04:43:32;3.00;;;2.23;;
15679;SDS011;15488;48.114;11.532;2023-04-03T04:46:00;2.50;;;2.30;;
15679;SDS011;15488;48.114;11.532;2023-04-03T04:48:28;2.97;;;2.10;;
15679;SDS011;15488;48.114;11.532;2023-04-03T04:50:56;3.03;;;2.50;;
15679;SDS011;15488;48.114;11.532;2023-04-03T04:53:23;2.60;;;2.33;;
15679;SDS011;15488;48.114;11.532;2023-04-03T04:55:51;2.63;;;2.43;;
15679;SDS011;15488;48.114;11.532;2023-04-03T04:58:18;2.47;;;2.10;;
15679;SDS011;15488;48.114;11.532;2023-04-03T05:00:47;3.40;;;2.33;;
15679;SDS011;15488;48.114;11.532;2023-04-03T05:03:15;2.57;;;2.23;;
15679;SDS011;15488;48.114;11.532;2023-04-03T05:05:42;2.97;;;2.10;;
15679;SDS011;15488;48.114;11.532;2023-04-03T05:08:10;2.77;;;2.20;;
15679;SDS011;15488;48.114;11.532;2023-04-03T05:10:37;3.10;;;2.20;;
15679;SDS011;15488;48.114;11.532;2023-04-03T05:13:06;2.53;;;2.30;;
15679;SDS011;15488;48.114;11.532;2023-04-03T05:15:34;2.67;;;2.20;;
15679;SDS011;15488;48.114;11.532;2023-04-03T05:18:02;2.57;;;2.37;;
15679;SDS011;15488;48.114;11.532;2023-04-03T05:20:30;3.60;;;2.50;;
15679;SDS011;15488;48.114;11.532;2023-04-03T05:22:58;2.43;;;2.07;;
15679;SDS011;15488;48.114;11.532;2023-04-03T05:25:26;2.53;;;2.10;;
15679;SDS011;15488;48.114;11.532;2023-04-03T05:27:53;2.50;;;2.20;;
15679;SDS011;15488;48.114;11.532;2023-04-03T05:30:21;3.33;;;2.60;;
15679;SDS011;15488;48.114;11.532;2023-04-03T05:32:49;4.03;;;2.47;;
15679;SDS011;15488;48.114;11.532;2023-04-03T05:35:18;3.20;;;2.60;;
15679;SDS011;15488;48.114;11.532;2023-04-03T05:37:45;2.93;;;2.40;;
15679;SDS011;15488;48.114;11.532;2023-04-03T05:40:12;3.30;;;2.80;;
15679;SDS011;15488;48.114;11.532;2023-04-03T05:42:40;3.53;;;2.20;;
15679;SDS011;15488;48.114;11.532;2023-04-03T05:45:08;3.40;;;2.50;;
15679;SDS011;15488;48.114;11.532;2023-04-03T05:47:36;3.73;;;2.30;;
15679;SDS011;15488;48.114;11.532;2023-04-03T05:50:03;3.83;;;2.53;;
15679;SDS011;15488;48.114;11.532;2023-04-03T05:52:33;2.57;;;2.20;;
15679;SDS011;15488;48.114;11.532;2023-04-03T05:55:04;2.50;;;2.30;;
15679;SDS011;15488;48.114;11.532;2023-04-03T05:57:32;3.07;;;2.57;;
15679;SDS011;15488;48.114;11.532;2023-04-03T05:59:59;3.03;;;2.50;;
15679;SDS011;15488;48.114;11.532;2023-04-03T06:02:27;3.27;;;2.20;;
15679;SDS011;15488;48.114;11.532;2023-04-03T06:04:56;2.47;;;2.00;;
15679;SDS011;15488;48.114;11.532;2023-04-03T06:07:24;2.50;;;2.30;;
15679;SDS011;15488;48.114;11.532;2023-04-03T06:09:55;3.10;;;2.27;;
15679;SDS011;15488;48.114;11.532;2023-04-03T06:12:23;3.47;;;2.10;;
15679;SDS011;15488;48.114;11.532;2023-04-03T06:14:50;3.00;;;2.10;;
15679;SDS011;15488;48.114;11.532;2023-04-03T06:17:18;3.20;;;2.50;;
15679;SDS011;15488;48.114;11.532;2023-04-03T06:19:45;3.10;;;2.60;;
15679;SDS011;15488;48.114;11.532;2023-04-03T06:22:13;3.87;;;3.10;;
15679;SDS011;15488;48.114;11.532;2023-04-03T06:24:41;3.73;;;2.70;;
15679;SDS011;15488;48.114;11.532;2023-04-03T06:27:10;3.93;;;2.50;;
15679;SDS011;15488;48.114;11.532;2023-04-03T06:29:38;3.77;;;2.43;;
15679;SDS011;15488;48.114;11.532;2023-04-03T06:32:05;3.60;;;2.60;;
15679;SDS011;15488;48.114;11.532;2023-04-03T06:34:33;2.87;;;2.20;;
15679;SDS011;15488;48.114;11.532;2023-04-03T06:37:00;3.40;;;2.47;;
15679;SDS011;15488;48.114;11.532;2023-04-03T06:39:28;4.77;;;2.50;;
15679;SDS011;15488;48.114;11.532;2023-04-03T06:41:55;4.20;;;2.90;;
15679;SDS011;15488;48.114;11.532;2023-04-03T06:44:24;4.00;;;3.00;;
15679;SDS011;15488;48.114;11.532;2023-04-03T06:46:51;3.00;;;2.70;;
15679;SDS011;15488;48.114;11.532;2023-04-03T06:49:19;4.97;;;3.13;;
15679;SDS011;15488;48.114;11.532;2023-04-03T06:51:47;3.53;;;2.67;;
15679;SDS011;15488;48.114;11.532;2023-04-03T06:54:14;4.73;;;2.63;;
15679;SDS011;15488;48.114;11.532;2023-04-03T06:56:43;3.83;;;2.83;;
15679;SDS011;15488;48.114;11.532;2023-04-03T06:59:11;4.67;;;2.57;;
15679;SDS011;15488;48.114;11.532;2023-04-03T07:01:41;6.33;;;2.70;;
15679;SDS011;15488;48.114;11.532;2023-04-03T07:04:08;4.30;;;2.70;;
15679;SDS011;15488;48.114;11.532;2023-04-03T07:06:36;4.40;;;2.70;;
15679;SDS011;15488;48.114;11.532;2023-04-03T07:09:03;4.17;;;2.70;;
15679;SDS011;15488;48.114;11.532;2023-04-03T07:11:31;3.27;;;2.40;;
15679;SDS011;15488;48.114;11.532;2023-04-03T07:13:58;3.97;;;2.50;;
15679;SDS011;15488;48.114;11.532;2023-04-03T07:16:26;2.77;;;2.50;;
15679;SDS011;15488;48.114;11.532;2023-04-03T07:18:57;3.57;;;2.80;;
15679;SDS011;15488;48.114;11.532;2023-04-03T07:21:24;2.77;;;2.20;;
15679;SDS011;15488;48.114;11.532;2023-04-03T07:23:52;5.13;;;2.50;;
15679;SDS011;15488;48.114;11.532;2023-04-03T07:26:19;3.00;;;2.40;;
15679;SDS011;15488;48.114;11.532;2023-04-03T07:28:47;3.57;;;2.90;;
15679;SDS011;15488;48.114;11.532;2023-04-03T07:31:15;3.83;;;2.70;;
15679;SDS011;15488;48.114;11.532;2023-04-03T07:33:43;6.77;;;2.77;;
15679;SDS011;15488;48.114;11.532;2023-04-03T07:36:14;3.73;;;2.80;;
15679;SDS011;15488;48.114;11.532;2023-04-03T07:38:43;3.77;;;2.80;;
15679;SDS011;15488;48.114;11.532;2023-04-03T07:41:12;4.47;;;3.00;;
15679;SDS011;15488;48.114;11.532;2023-04-03T07:43:42;3.70;;;2.70;;
15679;SDS011;15488;48.114;11.532;2023-04-03T07:46:11;5.37;;;2.70;;
15679;SDS011;15488;48.114;11.532;2023-04-03T07:48:39;6.53;;;2.90;;
15679;SDS011;15488;48.114;11.532;2023-04-03T07:51:06;4.07;;;2.93;;
15679;SDS011;15488;48.114;11.532;2023-04-03T07:53:35;3.30;;;2.67;;
15679;SDS011;15488;48.114;11.532;2023-04-03T07:56:02;4.20;;;2.70;;
15679;SDS011;15488;48.114;11.532;2023-04-03T07:58:30;3.60;;;2.90;;
15679;SDS011;15488;48.114;11.532;2023-04-03T08:00:58;4.23;;;2.70;;
15679;SDS011;15488;48.114;11.532;2023-04-03T08:03:25;4.47;;;2.90;;
15679;SDS011;15488;48.114;11.532;2023-04-03T08:05:53;3.20;;;2.90;;
15679;SDS011;15488;48.114;11.532;2023-04-03T08:08:21;3.83;;;3.10;;
15679;SDS011;15488;48.114;11.532;2023-04-03T08:10:51;4.10;;;3.30;;
15679;SDS011;15488;48.114;11.532;2023-04-03T08:13:19;3.60;;;3.13;;
15679;SDS011;15488;48.114;11.532;2023-04-03T08:15:48;4.20;;;3.00;;
15679;SDS011;15488;48.114;11.532;2023-04-03T08:18:16;3.63;;;3.00;;
15679;SDS011;15488;48.114;11.532;2023-04-03T08:20:46;4.30;;;3.20;;
15679;SDS011;15488;48.114;11.532;2023-04-03T08:23:14;4.17;;;3.40;;
15679;SDS011;15488;48.114;11.532;2023-04-03T08:25:42;4.50;;;3.30;;
15679;SDS011;15488;48.114;11.532;2023-04-03T08:28:11;4.73;;;3.83;;
15679;SDS011;15488;48.114;11.532;2023-04-03T08:30:39;3.90;;;3.47;;
15679;SDS011;15488;48.114;11.532;2023-04-03T08:33:07;4.67;;;3.50;;
15679;SDS011;15488;48.114;11.532;2023-04-03T08:35:37;3.83;;;3.33;;
15679;SDS011;15488;48.114;11.532;2023-04-03T08:38:06;5.30;;;3.83;;
15679;SDS011;15488;48.114;11.532;2023-04-03T08:40:34;5.17;;;3.70;;
15679;SDS011;15488;48.114;11.532;2023-04-03T08:43:10;5.33;;;3.77;;
15679;SDS011;15488;48.114;11.532;2023-04-03T08:45:55;4.23;;;3.63;;
15679;SDS011;15488;48.114;11.532;2023-04-03T08:48:27;3.73;;;3.33;;
15679;SDS011;15488;48.114;11.532;2023-04-03T08:50:58;5.10;;;3.50;;
15679;SDS011;15488;48.114;11.532;2023-04-03T08:53:30;4.40;;;3.40;;
15679;SDS011;15488;48.114;11.532;2023-04-03T08:56:02;4.60;;;3.37;;
15679;SDS011;15488;48.114;11.532;2023-04-03T08:58:37;4.73;;;3.70;;
15679;SDS011;15488;48.114;11.532;2023-04-03T09:01:15;5.10;;;3.50;;
15679;SDS011;15488;48.114;11.532;2023-04-03T09:03:46;4.57;;;3.50;;
15679;SDS011;15488;48.114;11.532;2023-04-03T09:06:14;4.07;;;3.47;;
15679;SDS011;15488;48.114;11.532;2023-04-03T09:08:46;5.00;;;3.70;;
15679;SDS011;15488;48.114;11.532;2023-04-03T09:11:20;5.73;;;3.60;;
15679;SDS011;15488;48.114;11.532;2023-04-03T09:13:54;6.40;;;3.60;;
15679;SDS011;15488;48.114;11.532;2023-04-03T09:16:32;5.87;;;3.23;;
15679;SDS011;15488;48.114;11.532;2023-04-03T09:19:08;3.60;;;3.23;;
15679;SDS011;15488;48.114;11.532;2023-04-03T09:21:41;6.27;;;3.40;;
15679;SDS011;15488;48.114;11.532;2023-04-03T09:24:09;3.90;;;3.50;;
15679;SDS011;15488;48.114;11.532;2023-04-03T09:26:41;4.33;;;3.70;;
15679;SDS011;15488;48.114;11.532;2023-04-03T09:29:19;4.40;;;3.40;;
15679;SDS011;15488;48.114;11.532;2023-04-03T09:31:50;4.50;;;3.07;;
15679;SDS011;15488;48.114;11.532;2023-04-03T09:34:22;4.90;;;3.60;;
15679;SDS011;15488;48.114;11.532;2023-04-03T09:36:53;4.10;;;3.53;;
15679;SDS011;15488;48.114;11.532;2023-04-03T09:39:23;4.27;;;3.47;;
15679;SDS011;15488;48.114;11.532;2023-04-03T09:41:56;3.90;;;3.20;;
15679;SDS011;15488;48.114;11.532;2023-04-03T09:44:27;5.13;;;3.73;;
15679;SDS011;15488;48.114;11.532;2023-04-03T09:46:57;5.97;;;4.10;;
15679;SDS011;15488;48.114;11.532;2023-04-03T09:49:25;6.07;;;4.13;;
15679;SDS011;15488;48.114;11.532;2023-04-03T09:51:53;6.90;;;4.80;;
15679;SDS011;15488;48.114;11.532;2023-04-03T09:54:24;5.80;;;4.40;;
15679;SDS011;15488;48.114;11.532;2023-04-03T09:56:57;5.63;;;4.13;;
15679;SDS011;15488;48.114;11.532;2023-04-03T09:59:29;5.70;;;3.70;;
15679;SDS011;15488;48.114;11.532;2023-04-03T10:01:59;5.80;;;3.77;;
15679;SDS011;15488;48.114;11.532;2023-04-03T10:04:36;4.97;;;3.80;;
15679;SDS011;15488;48.114;11.532;2023-04-03T10:07:25;4.93;;;3.60;;
15679;SDS011;15488;48.114;11.532;2023-04-03T10:09:55;4.70;;;3.10;;
15679;SDS011;15488;48.114;11.532;2023-04-03T10:12:23;4.13;;;3.00;;
15679;SDS011;15488;48.114;11.532;2023-04-03T10:14:56;3.80;;;3.00;;
15679;SDS011;15488;48.114;11.532;2023-04-03T10:17:32;3.90;;;3.23;;
15679;SDS011;15488;48.114;11.532;2023-04-03T10:20:07;4.30;;;3.20;;
15679;SDS011;15488;48.114;11.532;2023-04-03T10:22:49;4.07;;;3.00;;
15679;SDS011;15488;48.114;11.532;2023-04-03T10:25:27;4.53;;;3.50;;
15679;SDS011;15488;48.114;11.532;2023-04-03T10:27:59;5.37;;;4.20;;
15679;SDS011;15488;48.114;11.532;2023-04-03T10:30:36;4.87;;;3.83;;
15679;SDS011;15488;48.114;11.532;2023-04-03T10:33:16;3.47;;;2.90;;
15679;SDS011;15488;48.114;11.532;2023-04-03T10:36:01;3.90;;;2.93;;
15679;SDS011;15488;48.114;11.532;2023-04-03T10:38:39;5.87;;;3.10;;
15679;SDS011;15488;48.114;11.532;2023-04-03T10:41:15;5.60;;;3.27;;
15679;SDS011;15488;48.114;11.532;2023-04-03T10:43:53;5.70;;;4.07;;
15679;SDS011;15488;48.114;11.532;2023-04-03T10:46:28;5.33;;;3.73;;
15679;SDS011;15488;48.114;11.532;2023-04-03T10:49:10;4.50;;;3.27;;
15679;SDS011;15488;48.114;11.532;2023-04-03T10:51:47;4.40;;;3.40;;
15679;SDS011;15488;48.114;11.532;2023-04-03T10:54:22;4.00;;;3.10;;
15679;SDS011;15488;48.114;11.532;2023-04-03T10:56:52;3.37;;;2.87;;
15679;SDS011;15488;48.114;11.532;2023-04-03T10:59:23;3.90;;;2.83;;
15679;SDS011;15488;48.114;11.532;2023-04-03T11:01:56;4.03;;;3.40;;
15679;SDS011;15488;48.114;11.532;2023-04-03T11:04:26;5.20;;;3.13;;
15679;SDS011;15488;48.114;11.532;2023-04-03T11:07:00;4.47;;;2.80;;
15679;SDS011;15488;48.114;11.532;2023-04-03T11:09:31;5.00;;;3.17;;
15679;SDS011;15488;48.114;11.532;2023-04-03T11:12:04;3.77;;;2.90;;
15679;SDS011;15488;48.114;11.532;2023-04-03T11:14:35;4.20;;;2.97;;
15679;SDS011;15488;48.114;11.532;2023-04-03T11:17:07;3.70;;;3.00;;
15679;SDS011;15488;48.114;11.532;2023-04-03T11:19:44;4.53;;;2.90;;
15679;SDS011;15488;48.114;11.532;2023-04-03T11:22:16;5.00;;;3.40;;
15679;SDS011;15488;48.114;11.532;2023-04-03T11:24:52;3.43;;;2.90;;
15679;SDS011;15488;48.114;11.532;2023-04-03T11:27:28;5.00;;;3.30;;
15679;SDS011;15488;48.114;11.532;2023-04-03T11:30:02;4.07;;;2.67;;
15679;SDS011;15488;48.114;11.532;2023-04-03T11:32:42;3.93;;;2.83;;
15679;SDS011;15488;48.114;11.532;2023-04-03T11:35:37;4.70;;;3.03;;
15679;SDS011;15488;48.114;11.532;2023-04-03T11:38:10;5.60;;;2.80;;
15679;SDS011;15488;48.114;11.532;2023-04-03T11:40:47;7.03;;;2.70;;
15679;SDS011;15488;48.114;11.532;2023-04-03T11:43:22;2.83;;;2.40;;
15679;SDS011;15488;48.114;11.532;2023-04-03T11:45:55;3.17;;;2.30;;
15679;SDS011;15488;48.114;11.532;2023-04-03T12:09:52;3.27;;;2.00;;
15679;SDS011;15488;48.114;11.532;2023-04-03T12:12:28;3.13;;;2.10;;
15679;SDS011;15488;48.114;11.532;2023-04-03T12:15:11;4.40;;;2.40;;
15679;SDS011;15488;48.114;11.532;2023-04-03T12:18:13;2.90;;;2.10;;
15679;SDS011;15488;48.114;11.532;2023-04-03T12:21:06;2.97;;;2.30;;
15679;SDS011;15488;48.114;11.532;2023-04-03T12:23:34;3.10;;;1.90;;
15679;SDS011;15488;48.114;11.532;2023-04-03T12:28:58;4.77;;;2.20;;
15679;SDS011;15488;48.114;11.532;2023-04-03T12:31:40;1.87;;;1.60;;
15679;SDS011;15488;48.114;11.532;2023-04-03T12:34:26;2.10;;;1.80;;
15679;SDS011;15488;48.114;11.532;2023-04-03T12:37:16;2.83;;;1.90;;
15679;SDS011;15488;48.114;11.532;2023-04-03T12:39:52;2.27;;;1.43;;
15679;SDS011;15488;48.114;11.532;2023-04-03T12:45:24;2.73;;;1.90;;
15679;SDS011;15488;48.114;11.532;2023-04-03T12:47:53;2.97;;;1.93;;
15679;SDS011;15488;48.114;11.532;2023-04-03T12:50:22;2.27;;;1.53;;
15679;SDS011;15488;48.114;11.532;2023-04-03T12:52:56;2.37;;;1.60;;
15679;SDS011;15488;48.114;11.532;2023-04-03T12:55:27;2.90;;;1.60;;
15679;SDS011;15488;48.114;11.532;2023-04-03T12:57:55;3.77;;;1.93;;
15679;SDS011;15488;48.114;11.532;2023-04-03T13:00:33;3.17;;;1.83;;
15679;SDS011;15488;48.114;11.532;2023-04-03T13:03:04;5.67;;;3.20;;
15679;SDS011;15488;48.114;11.532;2023-04-03T13:05:45;4.07;;;3.20;;
15679;SDS011;15488;48.114;11.532;2023-04-03T13:08:13;4.57;;;2.77;;
15679;SDS011;15488;48.114;11.532;2023-04-03T13:10:52;4.60;;;2.83;;
15679;SDS011;15488;48.114;11.532;2023-04-03T13:13:23;4.00;;;2.60;;
15679;SDS011;15488;48.114;11.532;2023-04-03T13:15:52;3.07;;;2.20;;
15679;SDS011;15488;48.114;11.532;2023-04-03T13:18:22;2.60;;;2.00;;
15679;SDS011;15488;48.114;11.532;2023-04-03T13:20:56;3.07;;;1.87;;
15679;SDS011;15488;48.114;11.532;2023-04-03T13:23:29;2.87;;;2.00;;
15679;SDS011;15488;48.114;11.532;2023-04-03T13:25:58;4.97;;;3.40;;
15679;SDS011;15488;48.114;11.532;2023-04-03T13:28:28;4.80;;;2.60;;
15679;SDS011;15488;48.114;11.532;2023-04-03T13:31:03;2.93;;;2.50;;
15679;SDS011;15488;48.114;11.532;2023-04-03T13:33:35;3.53;;;2.87;;
15679;SDS011;15488;48.114;11.532;2023-04-03T13:36:05;3.27;;;2.37;;
15679;SDS011;15488;48.114;11.532;2023-04-03T13:38:37;2.37;;;1.70;;
15679;SDS011;15488;48.114;11.532;2023-04-03T13:41:20;2.23;;;1.60;;
15679;SDS011;15488;48.114;11.532;2023-04-03T13:43:51;3.73;;;1.80;;
15679;SDS011;15488;48.114;11.532;2023-04-03T13:46:24;1.70;;;1.60;;
15679;SDS011;15488;48.114;11.532;2023-04-03T13:48:53;2.67;;;1.67;;
15679;SDS011;15488;48.114;11.532;2023-04-03T13:51:23;2.07;;;1.77;;
15679;SDS011;15488;48.114;11.532;2023-04-03T13:53:52;2.13;;;1.77;;
15679;SDS011;15488;48.114;11.532;2023-04-03T13:56:27;2.43;;;1.80;;
15679;SDS011;15488;48.114;11.532;2023-04-03T13:58:59;1.83;;;1.70;;
15679;SDS011;15488;48.114;11.532;2023-04-03T14:01:38;2.23;;;1.60;;
15679;SDS011;15488;48.114;11.532;2023-04-03T14:04:16;3.73;;;2.83;;
15679;SDS011;15488;48.114;11.532;2023-04-03T14:06:45;3.33;;;2.13;;
15679;SDS011;15488;48.114;11.532;2023-04-03T14:09:14;3.17;;;2.13;;
15679;SDS011;15488;48.114;11.532;2023-04-03T14:11:43;4.07;;;2.00;;
15679;SDS011;15488;48.114;11.532;2023-04-03T14:14:13;2.57;;;1.60;;
15679;SDS011;15488;48.114;11.532;2023-04-03T14:16:45;2.30;;;2.00;;
15679;SDS011;15488;48.114;11.532;2023-04-03T14:19:19;2.33;;;1.53;;
15679;SDS011;15488;48.114;11.532;2023-04-03T14:21:49;2.07;;;1.83;;
15679;SDS011;15488;48.114;11.532;2023-04-03T14:24:17;3.00;;;1.70;;
15679;SDS011;15488;48.114;11.532;2023-04-03T14:26:45;3.40;;;1.93;;
15679;SDS011;15488;48.114;11.532;2023-04-03T14:29:14;3.03;;;1.80;;
15679;SDS011;15488;48.114;11.532;2023-04-03T14:31:43;3.03;;;2.33;;
15679;SDS011;15488;48.114;11.532;2023-04-03T14:34:12;3.20;;;2.53;;
15679;SDS011;15488;48.114;11.532;2023-04-03T14:36:41;3.03;;;2.60;;
15679;SDS011;15488;48.114;11.532;2023-04-03T14:39:10;3.27;;;2.13;;
15679;SDS011;15488;48.114;11.532;2023-04-03T14:41:42;3.80;;;2.20;;
15679;SDS011;15488;48.114;11.532;2023-04-03T14:44:10;2.03;;;1.80;;
15679;SDS011;15488;48.114;11.532;2023-04-03T14:46:38;1.93;;;1.67;;
15679;SDS011;15488;48.114;11.532;2023-04-03T14:49:11;2.00;;;1.60;;
15679;SDS011;15488;48.114;11.532;2023-04-03T14:51:41;2.37;;;1.57;;
15679;SDS011;15488;48.114;11.532;2023-04-03T14:54:10;2.10;;;1.63;;
15679;SDS011;15488;48.114;11.532;2023-04-03T14:56:40;2.57;;;1.97;;
15679;SDS011;15488;48.114;11.532;2023-04-03T14:59:09;3.13;;;2.20;;
15679;SDS011;15488;48.114;11.532;2023-04-03T15:01:39;2.03;;;1.83;;
15679;SDS011;15488;48.114;11.532;2023-04-03T15:04:12;2.23;;;1.60;;
15679;SDS011;15488;48.114;11.532;2023-04-03T15:06:40;1.60;;;1.50;;
15679;SDS011;15488;48.114;11.532;2023-04-03T15:09:12;1.67;;;1.57;;
15679;SDS011;15488;48.114;11.532;2023-04-03T15:11:46;2.53;;;1.70;;
15679;SDS011;15488;48.114;11.532;2023-04-03T15:14:14;1.47;;;1.23;;
15679;SDS011;15488;48.114;11.532;2023-04-03T15:16:41;2.43;;;1.77;;
15679;SDS011;15488;48.114;11.532;2023-04-03T15:19:09;3.83;;;1.77;;
15679;SDS011;15488;48.114;11.532;2023-04-03T15:21:38;2.30;;;1.47;;